Home   Weather   Hungary   Budapest   Past weeks
Flag for Hungary

Past Weather in Budapest, Hungary — August 2020

Currently: 70 °F. Sunny. (Weather station: Ferenc Liszt International Airport, Hungary). See more current weather

August 2020 Weather in Budapest — Graph

°F

High & Low Weather Summary for August 2020

 TemperatureHumidityPressure
High95 °F (Aug 30, 3:30 pm)100% (Aug 4, 5:17 am)30.12 "Hg (Aug 4, 5:17 am)
Low52 °F (Aug 26, 1:30 am)19% (Aug 1, 2:00 pm)29.62 "Hg (Aug 4, 2:00 am)
Average73 °F66%29.93 "Hg
* Reported Aug 1 12:00 am — Aug 31 11:40 pm, Budapest. Weather by CustomWeather, © 2021

Note: Actual official high and low records may vary slightly from our data, if they occured in-between our weather recording intervals... More about our weather records

Budapest Weather History for August 1, 2020

Scroll right to see more
 ConditionsComfort  
Time TempWeatherWind HumidityBarometerVisibility
12:00 am
Sat, Aug 1
73 °FClear.8 mph53%29.95 "Hg10 mi
12:30 am70 °FClear.6 mph60%29.98 "Hg10 mi
1:00 am72 °FPassing clouds.3 mph57%29.98 "HgN/A
1:30 am72 °FClear.5 mph57%29.98 "Hg10 mi
2:00 am72 °FClear.5 mph57%29.98 "Hg10 mi
2:30 am63 °FClear.2 mph77%29.98 "Hg10 mi
3:00 am66 °FClear.2 mph64%29.98 "Hg10 mi
3:30 am68 °FPassing clouds.3 mph60%29.98 "HgN/A
4:00 am66 °FClear.5 mph60%29.98 "Hg10 mi
4:30 am61 °FClear.2 mph72%29.98 "Hg10 mi
5:00 am59 °FClear.2 mph77%29.98 "Hg10 mi
5:30 am59 °FPassing clouds.3 mph77%29.98 "HgN/A
6:00 am57 °FSunny.1 mph88%29.98 "Hg10 mi
6:30 am59 °FSunny.No wind88%29.98 "Hg10 mi
7:00 am63 °FSunny.1 mph83%29.98 "Hg10 mi
7:30 am68 °FSunny.2 mph69%29.98 "Hg10 mi
8:00 am70 °FSunny.5 mph60%29.98 "Hg10 mi
8:30 am72 °FPassing clouds.3 mph53%30.01 "HgN/A
9:00 am75 °FPassing clouds.6 mph39%30.01 "HgN/A
9:30 am77 °FPassing clouds.3 mph36%29.98 "HgN/A
10:00 am77 °FSunny.2 mph39%29.98 "Hg10 mi
10:30 am79 °FSunny.2 mph34%29.98 "Hg10 mi
11:00 am79 °FSunny.2 mph37%29.98 "Hg10 mi
11:30 am79 °FPassing clouds.6 mph37%29.98 "HgN/A
12:00 pm81 °FPassing clouds.6 mph32%29.98 "HgN/A
12:30 pm81 °FPassing clouds.8 mph34%29.98 "HgN/A
1:00 pm82 °FSunny.5 mph32%29.95 "Hg10 mi
1:30 pm84 °FPassing clouds.5 mph27%29.95 "HgN/A
2:00 pm84 °FPassing clouds.8 mph19%29.95 "HgN/A
2:30 pm84 °FSunny.6 mph25%29.92 "Hg10 mi
3:00 pm84 °FPassing clouds.6 mph27%29.92 "HgN/A
3:30 pm86 °FPassing clouds.9 mph24%29.92 "HgN/A
4:00 pm84 °FPassing clouds.7 mph25%29.92 "HgN/A
4:30 pm86 °FPassing clouds.8 mph24%29.92 "HgN/A
5:00 pm84 °FPassing clouds.7 mph27%29.92 "HgN/A
5:30 pm84 °FSunny.3 mph27%29.92 "Hg10 mi
6:00 pm84 °FPassing clouds.7 mph29%29.92 "HgN/A
6:30 pm84 °FPassing clouds.5 mph29%29.89 "HgN/A
7:00 pm82 °FPassing clouds.6 mph32%29.89 "HgN/A
7:30 pm81 °FSunny.2 mph37%29.89 "Hg10 mi
8:00 pm79 °FPassing clouds.5 mph39%29.89 "HgN/A
8:30 pm75 °FClear.5 mph47%29.92 "Hg10 mi
9:00 pm70 °FClear.1 mph57%29.92 "Hg10 mi
9:30 pm70 °FClear.1 mph60%29.92 "Hg10 mi
10:00 pm72 °FClear.6 mph53%29.92 "Hg10 mi
10:30 pm70 °FClear.12 mph64%29.95 "Hg10 mi
11:00 pm70 °FClear.13 mph64%29.95 "Hg10 mi
11:30 pm68 °FClear.9 mph64%29.98 "Hg10 mi
Weather by CustomWeather, © 2021

See weather overview